createdAt,value
2023-01-29T00:02:58.493Z,5.10
2023-01-29T00:05:42.547Z,5.40
2023-01-29T00:08:37.613Z,5.40
2023-01-29T00:11:21.354Z,5.30
2023-01-29T00:14:15.310Z,5.40
2023-01-29T00:17:10.249Z,4.70
2023-01-29T00:20:04.111Z,5.00
2023-01-29T00:22:57.749Z,5.90
2023-01-29T00:25:51.724Z,5.40
2023-01-29T00:28:45.698Z,5.40
2023-01-29T00:31:39.717Z,5.00
2023-01-29T00:34:33.562Z,5.00
2023-01-29T00:37:27.491Z,5.50
2023-01-29T00:40:21.580Z,5.40
2023-01-29T00:43:32.914Z,5.20
2023-01-29T00:46:26.886Z,5.00
2023-01-29T00:49:20.541Z,4.90
2023-01-29T00:52:26.419Z,5.10
2023-01-29T00:55:20.424Z,4.50
2023-01-29T01:00:52.006Z,4.90
2023-01-29T01:03:45.806Z,4.60
2023-01-29T01:06:43.017Z,4.90
2023-01-29T01:09:55.200Z,4.90
2023-01-29T01:12:49.114Z,5.50
2023-01-29T01:15:44.852Z,4.90
2023-01-29T01:18:39.113Z,5.00
2023-01-29T01:21:33.325Z,4.70
2023-01-29T01:24:30.178Z,4.60
2023-01-29T01:27:23.995Z,4.80
2023-01-29T01:30:19.424Z,5.00
2023-01-29T01:33:13.229Z,4.60
2023-01-29T01:36:09.832Z,4.40
2023-01-29T01:39:03.580Z,4.70
2023-01-29T01:41:57.734Z,4.50
2023-01-29T01:45:01.119Z,4.40
2023-01-29T01:48:01.369Z,4.30
2023-01-29T01:51:00.960Z,4.60
2023-01-29T01:54:02.726Z,4.30
2023-01-29T01:57:09.240Z,4.30
2023-01-29T02:00:11.549Z,4.40
2023-01-29T02:03:23.426Z,4.50
2023-01-29T02:06:34.747Z,4.40
2023-01-29T02:09:36.099Z,4.40
2023-01-29T02:12:31.546Z,3.90
2023-01-29T02:15:25.239Z,4.10
2023-01-29T02:18:21.983Z,4.20
2023-01-29T02:21:52.408Z,3.90
2023-01-29T02:25:09.739Z,4.00
2023-01-29T02:28:38.017Z,4.10
2023-01-29T02:31:42.558Z,4.20
2023-01-29T02:35:05.320Z,3.90
2023-01-29T02:38:10.754Z,3.90
2023-01-29T02:41:16.129Z,4.40
2023-01-29T02:44:17.874Z,4.00
2023-01-29T02:47:20.784Z,4.00
2023-01-29T02:50:22.340Z,3.80
2023-01-29T02:53:20.993Z,3.90
2023-01-29T02:56:29.756Z,3.90
2023-01-29T02:59:28.694Z,3.90
2023-01-29T03:02:36.912Z,3.80
2023-01-29T03:05:38.280Z,3.90
2023-01-29T03:08:43.283Z,3.50
2023-01-29T03:11:45.476Z,3.80
2023-01-29T03:14:55.759Z,3.40
2023-01-29T03:17:59.809Z,3.40
2023-01-29T03:20:58.467Z,3.50
2023-01-29T03:24:10.670Z,3.50
2023-01-29T03:27:28.760Z,3.50
2023-01-29T03:30:46.003Z,3.60
2023-01-29T03:33:48.305Z,3.40
2023-01-29T03:36:55.897Z,3.40
2023-01-29T03:39:49.817Z,3.10
2023-01-29T03:43:02.815Z,3.40
2023-01-29T03:46:07.095Z,3.20
2023-01-29T03:49:18.213Z,3.50
2023-01-29T03:52:23.022Z,3.20
2023-01-29T03:55:22.633Z,3.20
2023-01-29T03:58:26.804Z,3.00
2023-01-29T04:04:20.347Z,3.10
2023-01-29T04:07:18.565Z,3.30
2023-01-29T04:10:18.399Z,3.30
2023-01-29T04:13:16.755Z,3.10
2023-01-29T04:16:16.756Z,3.30
2023-01-29T04:19:10.969Z,3.20
2023-01-29T04:22:08.809Z,3.10
2023-01-29T04:25:08.471Z,3.00
2023-01-29T04:28:17.840Z,3.10
2023-01-29T04:31:15.340Z,2.90
2023-01-29T04:34:22.518Z,2.70
2023-01-29T04:37:24.327Z,2.90
2023-01-29T04:40:27.798Z,3.20
2023-01-29T04:43:09.288Z,3.10
2023-01-29T04:46:15.583Z,2.80
2023-01-29T04:49:28.905Z,2.80
2023-01-29T04:52:33.462Z,2.70
2023-01-29T04:55:39.972Z,2.80
2023-01-29T04:58:39.121Z,2.80
2023-01-29T05:01:35.143Z,2.80
2023-01-29T05:04:26.004Z,2.90
2023-01-29T05:07:20.947Z,2.70
2023-01-29T05:10:20.439Z,2.70
2023-01-29T05:13:18.191Z,2.40
2023-01-29T05:19:19.419Z,2.90
2023-01-29T05:22:16.462Z,2.90
2023-01-29T05:25:24.280Z,2.60
2023-01-29T05:28:17.972Z,2.50
2023-01-29T05:31:12.225Z,2.70
2023-01-29T05:34:05.979Z,2.50
2023-01-29T05:36:59.641Z,2.80
2023-01-29T05:39:38.476Z,2.40
2023-01-29T05:42:32.153Z,3.20
2023-01-29T05:45:26.200Z,2.80
2023-01-29T05:48:19.889Z,2.60
2023-01-29T05:51:13.602Z,2.90
2023-01-29T05:54:07.744Z,2.50
2023-01-29T05:57:01.466Z,2.60
2023-01-29T05:59:55.226Z,2.50
2023-01-29T06:02:49.047Z,2.80
2023-01-29T06:05:43.340Z,2.50
2023-01-29T06:08:37.248Z,2.50
2023-01-29T06:11:31.073Z,2.90
2023-01-29T06:14:24.735Z,2.70
2023-01-29T06:17:21.476Z,2.40
2023-01-29T06:19:57.877Z,2.50
2023-01-29T06:22:51.374Z,2.50
2023-01-29T06:25:45.095Z,2.60
2023-01-29T06:28:38.921Z,2.80
2023-01-29T06:31:38.690Z,2.80
2023-01-29T06:34:32.930Z,2.80
2023-01-29T06:37:26.783Z,2.50
2023-01-29T06:40:21.625Z,2.40
2023-01-29T06:43:15.502Z,2.70
2023-01-29T06:46:13.637Z,2.70
2023-01-29T06:49:07.326Z,2.80
2023-01-29T06:52:01.152Z,2.50
2023-01-29T06:54:54.828Z,2.60
2023-01-29T06:57:48.534Z,2.70
2023-01-29T07:00:42.691Z,2.60
2023-01-29T07:03:36.840Z,2.40
2023-01-29T07:06:33.690Z,2.60
2023-01-29T07:09:27.341Z,2.40
2023-01-29T07:12:21.052Z,2.90
2023-01-29T07:15:19.859Z,2.70
2023-01-29T07:18:13.846Z,2.50
2023-01-29T07:21:10.104Z,2.80
2023-01-29T07:24:03.836Z,3.10
2023-01-29T07:26:57.462Z,3.10
2023-01-29T07:29:51.202Z,2.90
2023-01-29T07:32:44.850Z,2.80
2023-01-29T07:35:41.739Z,2.80
2023-01-29T07:38:35.589Z,3.50
2023-01-29T07:41:29.263Z,3.70
2023-01-29T07:44:22.988Z,3.10
2023-01-29T07:47:07.443Z,3.10
2023-01-29T07:50:01.129Z,3.10
2023-01-29T07:52:56.631Z,3.00
2023-01-29T07:55:50.251Z,3.00
2023-01-29T07:58:43.998Z,3.20
2023-01-29T08:01:37.978Z,2.80
2023-01-29T08:04:31.687Z,3.40
2023-01-29T08:07:25.443Z,2.90
2023-01-29T08:10:19.754Z,3.40
2023-01-29T08:13:13.913Z,3.70
2023-01-29T08:16:09.354Z,3.60
2023-01-29T08:19:04.084Z,3.40
2023-01-29T08:21:57.803Z,3.60
2023-01-29T08:24:53.957Z,3.90
2023-01-29T08:27:53.704Z,3.40
2023-01-29T08:30:47.409Z,3.70
2023-01-29T08:33:41.130Z,4.20
2023-01-29T08:36:35.617Z,3.60
2023-01-29T08:39:29.580Z,3.60
2023-01-29T08:42:23.447Z,4.00
2023-01-29T08:45:18.096Z,3.80
2023-01-29T08:48:12.719Z,3.80
2023-01-29T08:51:07.209Z,3.60
2023-01-29T08:54:01.514Z,3.50
2023-01-29T08:56:55.272Z,3.90
2023-01-29T08:59:49.178Z,4.20
2023-01-29T09:02:43.898Z,3.70
2023-01-29T09:05:39.092Z,3.50
2023-01-29T09:08:32.778Z,3.70
2023-01-29T09:11:26.574Z,3.60
2023-01-29T09:14:20.633Z,3.70
2023-01-29T09:17:14.408Z,3.80
2023-01-29T09:20:10.661Z,5.60
2023-01-29T09:23:08.108Z,4.40
2023-01-29T09:26:02.170Z,3.40
2023-01-29T09:28:56.351Z,3.80
2023-01-29T09:31:50.257Z,3.20
2023-01-29T09:34:26.908Z,3.00
2023-01-29T09:37:23.454Z,3.30
2023-01-29T09:40:26.705Z,5.20
2023-01-29T09:43:25.507Z,4.60
2023-01-29T09:46:27.934Z,4.10
2023-01-29T09:49:31.573Z,3.50
2023-01-29T09:52:31.447Z,4.30
2023-01-29T09:55:32.518Z,4.00
2023-01-29T09:58:33.422Z,4.20
2023-01-29T10:01:34.320Z,4.00
2023-01-29T10:05:00.373Z,4.30
2023-01-29T10:08:20.683Z,4.10
2023-01-29T10:11:31.650Z,4.40
2023-01-29T10:14:37.881Z,4.10
2023-01-29T10:17:51.773Z,4.70
2023-01-29T10:21:13.557Z,4.70
2023-01-29T10:24:25.090Z,5.00
2023-01-29T10:27:22.772Z,4.80
2023-01-29T10:30:48.855Z,4.70
2023-01-29T10:34:01.535Z,5.50
2023-01-29T10:36:58.035Z,5.80
2023-01-29T10:39:51.916Z,6.10
2023-01-29T10:42:53.882Z,6.70
2023-01-29T10:45:54.979Z,7.20
2023-01-29T10:49:03.260Z,6.90
2023-01-29T10:52:12.342Z,6.80
2023-01-29T10:55:21.974Z,7.60
2023-01-29T10:58:30.958Z,7.60
2023-01-29T11:01:27.196Z,7.00
2023-01-29T11:04:21.206Z,7.60
2023-01-29T11:07:19.406Z,7.10
2023-01-29T11:10:19.744Z,7.00
2023-01-29T11:13:18.380Z,7.40
2023-01-29T11:16:13.254Z,7.30
2023-01-29T11:19:07.077Z,7.10
2023-01-29T11:22:04.298Z,7.20
2023-01-29T11:25:19.160Z,7.40
2023-01-29T11:27:58.504Z,7.40
2023-01-29T11:30:53.897Z,7.10
2023-01-29T11:33:48.179Z,7.30
2023-01-29T11:36:42.600Z,7.50
2023-01-29T11:39:56.506Z,7.30
2023-01-29T11:42:51.648Z,7.80
2023-01-29T11:45:49.048Z,6.60
2023-01-29T11:48:52.019Z,6.80
2023-01-29T11:52:05.693Z,7.20
2023-01-29T11:55:05.655Z,7.50
2023-01-29T11:58:08.021Z,6.90
2023-01-29T12:01:03.349Z,7.30
2023-01-29T12:03:57.322Z,7.30
2023-01-29T12:06:54.039Z,8.00
2023-01-29T12:09:55.731Z,7.70
2023-01-29T12:12:49.825Z,7.00
2023-01-29T12:15:44.718Z,7.20
2023-01-29T12:18:44.526Z,7.70
2023-01-29T12:21:46.135Z,7.40
2023-01-29T12:24:50.797Z,7.60
2023-01-29T12:27:55.009Z,8.70
2023-01-29T12:31:04.994Z,8.50
2023-01-29T12:34:11.693Z,9.00
2023-01-29T12:37:38.354Z,8.80
2023-01-29T12:40:39.439Z,8.10
2023-01-29T12:43:40.413Z,9.30
2023-01-29T12:46:40.397Z,10.30
2023-01-29T12:49:43.068Z,10.00
2023-01-29T12:52:46.090Z,12.20
2023-01-29T12:55:47.684Z,10.30
2023-01-29T12:58:46.735Z,9.70
2023-01-29T13:01:48.033Z,9.20
2023-01-29T13:04:41.834Z,10.40
2023-01-29T13:07:59.776Z,9.50
2023-01-29T13:10:56.083Z,8.60
2023-01-29T13:14:00.439Z,8.40
2023-01-29T13:19:54.868Z,9.10
2023-01-29T13:22:50.104Z,9.30
2023-01-29T13:25:44.335Z,10.40
2023-01-29T13:28:39.317Z,9.60
2023-01-29T13:31:36.334Z,11.00
2023-01-29T13:34:36.027Z,11.80
2023-01-29T13:37:35.207Z,10.10
2023-01-29T13:40:34.744Z,9.50
2023-01-29T13:43:34.555Z,9.20
2023-01-29T13:46:29.878Z,10.30
2023-01-29T13:49:37.141Z,9.10
2023-01-29T13:52:43.163Z,11.00
2023-01-29T13:55:39.421Z,11.60
2023-01-29T13:59:01.759Z,12.70
2023-01-29T14:02:25.936Z,10.30
2023-01-29T14:06:01.976Z,10.50
2023-01-29T14:08:55.801Z,11.50
2023-01-29T14:11:53.626Z,11.10
2023-01-29T14:15:27.660Z,11.30
2023-01-29T14:18:27.095Z,10.00
2023-01-29T14:21:29.875Z,9.00
2023-01-29T14:24:29.832Z,10.00
2023-01-29T14:27:26.353Z,9.40
2023-01-29T14:30:23.914Z,9.60
2023-01-29T14:33:36.017Z,9.10
2023-01-29T14:36:30.404Z,9.40
2023-01-29T14:39:34.190Z,8.40
2023-01-29T14:42:30.901Z,8.60
2023-01-29T14:45:32.400Z,8.60
2023-01-29T14:48:47.463Z,8.20
2023-01-29T14:51:45.609Z,8.30
2023-01-29T14:54:41.800Z,9.00
2023-01-29T14:57:36.965Z,7.80
2023-01-29T15:00:35.682Z,8.50
2023-01-29T15:03:45.046Z,8.40
2023-01-29T15:06:45.824Z,8.10
2023-01-29T15:09:47.724Z,7.30
2023-01-29T15:12:50.269Z,8.10
2023-01-29T15:15:52.213Z,7.90
2023-01-29T15:18:46.855Z,8.40
2023-01-29T15:21:40.751Z,7.70
2023-01-29T15:24:35.018Z,8.10
2023-01-29T15:27:29.652Z,8.00
2023-01-29T15:30:33.618Z,7.80
2023-01-29T15:33:28.434Z,8.30
2023-01-29T15:36:25.502Z,8.20
2023-01-29T15:39:25.169Z,8.20
2023-01-29T15:42:23.673Z,8.60
2023-01-29T15:45:31.109Z,8.10
2023-01-29T15:48:32.925Z,8.20
2023-01-29T15:51:29.295Z,8.10
2023-01-29T15:54:23.055Z,7.60
2023-01-29T15:57:25.573Z,7.60
2023-01-29T16:00:29.724Z,8.10
2023-01-29T16:06:22.718Z,7.90
2023-01-29T16:09:23.612Z,8.30
2023-01-29T16:12:17.808Z,7.90
2023-01-29T16:15:36.462Z,7.80
2023-01-29T16:18:36.521Z,7.60
2023-01-29T16:21:35.726Z,7.60
2023-01-29T16:24:31.329Z,7.50
2023-01-29T16:27:27.855Z,7.40
2023-01-29T16:30:10.618Z,7.60
2023-01-29T16:36:01.237Z,7.60
2023-01-29T16:39:00.034Z,8.50
2023-01-29T16:42:30.258Z,6.90
2023-01-29T16:45:33.659Z,7.30
2023-01-29T16:48:34.618Z,7.20
2023-01-29T16:51:32.332Z,7.00
2023-01-29T16:54:18.380Z,7.60
2023-01-29T16:57:05.209Z,7.40
2023-01-29T17:00:02.530Z,7.50
2023-01-29T17:03:01.313Z,7.20
2023-01-29T17:05:55.534Z,7.40
2023-01-29T17:08:50.280Z,7.30
2023-01-29T17:11:44.802Z,7.90
2023-01-29T17:14:42.758Z,7.10
2023-01-29T17:17:37.705Z,7.20
2023-01-29T17:20:33.108Z,7.00
2023-01-29T17:23:27.030Z,7.20
2023-01-29T17:26:24.737Z,7.50
2023-01-29T17:32:17.972Z,7.10
2023-01-29T17:35:15.478Z,7.80
2023-01-29T17:38:24.273Z,7.00
2023-01-29T17:41:25.811Z,6.90
2023-01-29T17:44:19.748Z,6.90
2023-01-29T17:47:16.722Z,7.20
2023-01-29T17:50:22.501Z,6.80
2023-01-29T17:53:17.060Z,7.20
2023-01-29T17:56:17.337Z,6.70
2023-01-29T17:59:18.540Z,7.10
2023-01-29T18:02:29.108Z,7.80
2023-01-29T18:05:24.096Z,7.80
2023-01-29T18:08:23.302Z,7.20
2023-01-29T18:11:17.288Z,7.60
2023-01-29T18:14:14.487Z,8.10
2023-01-29T18:17:08.472Z,8.30
2023-01-29T18:20:02.984Z,8.30
2023-01-29T18:23:04.530Z,9.40
2023-01-29T18:25:59.284Z,8.60
2023-01-29T18:28:54.009Z,8.10
2023-01-29T18:31:50.795Z,7.80
2023-01-29T18:34:45.232Z,7.80
2023-01-29T18:37:39.713Z,8.10
2023-01-29T18:40:34.654Z,8.30
2023-01-29T18:43:31.000Z,8.40
2023-01-29T18:46:25.167Z,8.20
2023-01-29T18:49:19.340Z,7.40
2023-01-29T18:52:13.192Z,7.40
2023-01-29T18:55:09.597Z,8.20
2023-01-29T18:58:26.701Z,8.00
2023-01-29T19:01:18.313Z,8.20
2023-01-29T19:04:12.319Z,8.20
2023-01-29T19:07:06.082Z,8.40
2023-01-29T19:10:00.003Z,8.00
2023-01-29T19:12:53.760Z,8.10
2023-01-29T19:15:49.060Z,7.90
2023-01-29T19:18:43.570Z,8.00
2023-01-29T19:21:37.418Z,8.10
2023-01-29T19:24:37.339Z,7.70
2023-01-29T19:27:31.644Z,8.10
2023-01-29T19:30:25.754Z,7.80
2023-01-29T19:33:23.175Z,7.20
2023-01-29T19:36:17.455Z,8.30
2023-01-29T19:39:11.529Z,8.00
2023-01-29T19:42:05.983Z,7.70
2023-01-29T19:44:59.748Z,7.90
2023-01-29T19:47:54.294Z,8.00
2023-01-29T19:50:55.947Z,7.60
2023-01-29T19:53:50.042Z,8.00
2023-01-29T19:56:43.935Z,7.50
2023-01-29T19:59:37.793Z,7.90
2023-01-29T20:02:32.552Z,7.70
2023-01-29T20:05:27.152Z,7.40
2023-01-29T20:08:22.267Z,7.80
2023-01-29T20:11:19.676Z,7.10
2023-01-29T20:14:13.720Z,7.60
2023-01-29T20:17:07.890Z,7.20
2023-01-29T20:20:02.562Z,7.70
2023-01-29T20:22:57.392Z,7.00
2023-01-29T20:25:52.212Z,7.50
2023-01-29T20:28:48.280Z,7.20
2023-01-29T20:31:42.395Z,7.50
2023-01-29T20:34:36.340Z,8.30
2023-01-29T20:37:30.015Z,7.00
2023-01-29T20:40:24.181Z,7.60
2023-01-29T20:43:18.368Z,6.60
2023-01-29T20:46:13.647Z,7.30
2023-01-29T20:49:08.182Z,7.20
2023-01-29T20:52:01.983Z,7.70
2023-01-29T20:54:55.818Z,8.00
2023-01-29T20:58:05.823Z,7.30
2023-01-29T21:01:00.628Z,7.30
2023-01-29T21:03:54.520Z,7.60
2023-01-29T21:06:48.234Z,7.20
2023-01-29T21:09:42.052Z,8.30
2023-01-29T21:12:36.015Z,7.70
2023-01-29T21:15:29.769Z,7.40
2023-01-29T21:18:25.738Z,8.10
2023-01-29T21:21:19.679Z,8.10
2023-01-29T21:24:15.282Z,7.60
2023-01-29T21:27:10.200Z,7.60
2023-01-29T21:30:04.499Z,7.40
2023-01-29T21:32:38.084Z,8.30
2023-01-29T21:35:32.154Z,7.50
2023-01-29T21:38:26.032Z,7.80
2023-01-29T21:41:39.949Z,7.50
2023-01-29T21:44:33.851Z,7.70
2023-01-29T21:47:27.932Z,7.80
2023-01-29T21:50:22.200Z,7.90
2023-01-29T21:53:15.990Z,8.50
2023-01-29T21:56:10.503Z,7.60
2023-01-29T21:59:04.372Z,7.90
2023-01-29T22:01:59.828Z,7.30
2023-01-29T22:05:08.809Z,8.30
2023-01-29T22:08:11.314Z,8.10
2023-01-29T22:11:10.697Z,8.40
2023-01-29T22:14:05.001Z,7.90
2023-01-29T22:16:59.036Z,8.90
2023-01-29T22:19:53.821Z,8.50
2023-01-29T22:22:48.549Z,8.60
2023-01-29T22:25:43.791Z,8.40
2023-01-29T22:28:37.755Z,8.50
2023-01-29T22:31:31.880Z,8.40
2023-01-29T22:34:26.075Z,8.70
2023-01-29T22:37:19.977Z,8.30
2023-01-29T22:40:16.572Z,8.40
2023-01-29T22:43:12.131Z,8.50
2023-01-29T22:46:09.767Z,8.80
2023-01-29T22:49:03.582Z,8.80
2023-01-29T22:52:10.916Z,8.10
2023-01-29T22:55:05.266Z,8.90
2023-01-29T22:57:59.439Z,8.10
2023-01-29T23:00:55.176Z,8.70
2023-01-29T23:03:49.087Z,8.00
2023-01-29T23:06:43.086Z,7.60
2023-01-29T23:09:37.033Z,8.20
2023-01-29T23:12:31.140Z,8.20
2023-01-29T23:15:24.849Z,7.60
2023-01-29T23:18:18.763Z,8.30
2023-01-29T23:21:13.562Z,8.40
2023-01-29T23:24:09.129Z,7.90
2023-01-29T23:27:18.286Z,8.70
2023-01-29T23:30:15.922Z,8.40
2023-01-29T23:33:12.132Z,8.90
2023-01-29T23:36:07.137Z,8.80
2023-01-29T23:39:00.894Z,8.60
2023-01-29T23:41:54.555Z,8.70
2023-01-29T23:44:48.368Z,8.50
2023-01-29T23:47:42.453Z,8.80
2023-01-29T23:50:36.351Z,8.20
2023-01-29T23:53:30.260Z,8.60
2023-01-29T23:56:24.511Z,8.80
2023-01-29T23:59:18.465Z,9.10
